createdAt,value
2024-01-21T00:01:49.793Z,3.38
2024-01-21T00:04:52.086Z,2.17
2024-01-21T00:07:54.375Z,7.40
2024-01-21T00:10:56.665Z,3.23
2024-01-21T00:13:58.898Z,3.00
2024-01-21T00:17:01.244Z,2.08
2024-01-21T00:20:03.589Z,3.72
2024-01-21T00:23:06.187Z,1.80
2024-01-21T00:26:08.495Z,4.10
2024-01-21T00:29:10.670Z,3.90
2024-01-21T00:32:12.914Z,5.07
2024-01-21T00:35:15.154Z,1.65
2024-01-21T00:38:17.397Z,3.43
2024-01-21T00:41:21.465Z,3.93
2024-01-21T00:44:23.709Z,3.17
2024-01-21T00:47:26.031Z,6.63
2024-01-21T00:50:28.402Z,4.18
2024-01-21T00:53:30.627Z,2.40
2024-01-21T00:56:32.816Z,3.07
2024-01-21T00:59:35.101Z,6.05
2024-01-21T01:02:37.400Z,3.05
2024-01-21T01:05:39.849Z,3.25
2024-01-21T01:08:42.098Z,3.80
2024-01-21T01:11:44.309Z,1.67
2024-01-21T01:14:46.538Z,6.63
2024-01-21T01:17:48.993Z,5.70
2024-01-21T01:20:51.305Z,2.95
2024-01-21T01:23:53.453Z,2.90
2024-01-21T01:26:55.706Z,6.77
2024-01-21T01:29:57.978Z,4.50
2024-01-21T01:33:00.261Z,2.58
2024-01-21T01:36:02.518Z,5.80
2024-01-21T01:39:04.755Z,3.00
2024-01-21T01:42:06.968Z,4.00
2024-01-21T01:45:09.497Z,1.95
2024-01-21T01:48:12.136Z,2.45
2024-01-21T01:51:15.089Z,3.55
2024-01-21T01:54:17.851Z,7.80
2024-01-21T01:57:20.660Z,4.33
2024-01-21T02:00:23.015Z,1.25
2024-01-21T02:03:25.472Z,1.90
2024-01-21T02:06:27.917Z,2.17
2024-01-21T02:09:30.494Z,6.63
2024-01-21T02:12:32.773Z,2.77
2024-01-21T02:15:35.053Z,1.45
2024-01-21T02:18:38.549Z,5.15
2024-01-21T02:21:40.834Z,4.45
2024-01-21T02:24:43.095Z,4.33
2024-01-21T02:27:45.653Z,4.57
2024-01-21T02:30:48.003Z,5.40
2024-01-21T02:33:50.340Z,3.78
2024-01-21T02:36:52.667Z,3.78
2024-01-21T02:39:54.963Z,3.70
2024-01-21T02:42:57.166Z,7.23
2024-01-21T02:45:59.482Z,3.75
2024-01-21T02:49:01.932Z,3.65
2024-01-21T02:52:04.299Z,2.70
2024-01-21T02:55:06.657Z,2.33
2024-01-21T02:58:08.955Z,2.37
2024-01-21T03:01:11.403Z,5.72
2024-01-21T03:04:13.958Z,4.30
2024-01-21T03:07:16.536Z,3.53
2024-01-21T03:10:18.820Z,3.00
2024-01-21T03:13:21.073Z,2.83
2024-01-21T03:16:23.355Z,2.53
2024-01-21T03:19:25.622Z,6.10
2024-01-21T03:22:29.062Z,1.92
2024-01-21T03:25:31.334Z,2.07
2024-01-21T03:28:33.827Z,2.30
2024-01-21T03:31:36.001Z,2.97
2024-01-21T03:34:42.959Z,2.53
2024-01-21T03:37:45.260Z,5.18
2024-01-21T03:40:47.420Z,4.30
2024-01-21T03:43:49.684Z,1.17
2024-01-21T03:46:51.906Z,4.57
2024-01-21T03:49:54.131Z,1.65
2024-01-21T03:52:56.329Z,2.58
2024-01-21T03:55:58.757Z,1.73
2024-01-21T03:59:01.000Z,2.40
2024-01-21T04:02:03.241Z,2.38
2024-01-21T04:05:06.442Z,4.35
2024-01-21T04:08:08.864Z,2.67
2024-01-21T04:11:11.059Z,2.80
2024-01-21T04:14:13.234Z,2.27
2024-01-21T04:17:15.475Z,1.35
2024-01-21T04:20:17.721Z,4.00
2024-01-21T04:23:20.130Z,2.35
2024-01-21T04:26:22.345Z,2.57
2024-01-21T04:29:24.512Z,0.87
2024-01-21T04:32:26.713Z,13.43
2024-01-21T04:35:28.932Z,3.20
2024-01-21T04:38:31.146Z,3.30
2024-01-21T04:41:33.724Z,2.63
2024-01-21T04:44:36.135Z,4.33
2024-01-21T04:47:38.437Z,3.67
2024-01-21T04:50:40.955Z,5.53
2024-01-21T04:53:43.445Z,2.90
2024-01-21T04:56:45.658Z,3.97
2024-01-21T04:59:47.846Z,4.67
2024-01-21T05:02:50.051Z,5.18
2024-01-21T05:05:53.878Z,3.53
2024-01-21T05:08:56.639Z,3.65
2024-01-21T05:11:58.883Z,3.70
2024-01-21T05:15:01.217Z,3.70
2024-01-21T05:18:03.766Z,5.20
2024-01-21T05:21:06.371Z,3.67
2024-01-21T05:24:09.163Z,4.38
2024-01-21T05:27:11.577Z,3.80
2024-01-21T05:30:15.792Z,4.97
2024-01-21T05:33:17.980Z,10.18
2024-01-21T05:36:20.257Z,8.98
2024-01-21T05:39:22.496Z,6.28
2024-01-21T05:42:24.725Z,5.43
2024-01-21T05:45:27.029Z,4.93
2024-01-21T05:48:29.564Z,3.28
2024-01-21T05:51:31.818Z,5.65
2024-01-21T05:54:34.099Z,10.57
2024-01-21T05:57:36.399Z,3.73
2024-01-21T06:00:38.705Z,5.47
2024-01-21T06:03:41.071Z,3.25
2024-01-21T06:06:44.894Z,2.63
2024-01-21T06:09:47.859Z,6.35
2024-01-21T06:12:50.327Z,4.80
2024-01-21T06:15:52.968Z,2.47
2024-01-21T06:18:55.339Z,6.47
2024-01-21T06:21:57.744Z,7.88
2024-01-21T06:24:59.964Z,4.50
2024-01-21T06:28:02.316Z,4.17
2024-01-21T06:31:04.505Z,4.60
2024-01-21T06:34:07.061Z,10.55
2024-01-21T06:37:09.402Z,2.25
2024-01-21T06:40:11.662Z,2.60
2024-01-21T06:43:13.837Z,4.13
2024-01-21T06:46:16.929Z,3.43
2024-01-21T06:49:19.222Z,4.78
2024-01-21T06:52:21.548Z,3.67
2024-01-21T06:55:24.580Z,3.60
2024-01-21T06:58:26.889Z,1.43
2024-01-21T07:01:29.774Z,5.73
2024-01-21T07:04:32.387Z,10.13
2024-01-21T07:07:34.720Z,3.83
2024-01-21T07:10:36.959Z,6.10
2024-01-21T07:13:39.489Z,6.10
2024-01-21T07:16:41.787Z,6.67
2024-01-21T07:19:44.215Z,5.13
2024-01-21T07:22:46.521Z,6.30
2024-01-21T07:25:48.761Z,9.05
2024-01-21T07:28:51.143Z,7.13
2024-01-21T07:31:53.316Z,8.43
2024-01-21T07:34:55.615Z,3.65
2024-01-21T07:37:58.175Z,8.20
2024-01-21T07:41:00.486Z,2.60
2024-01-21T07:44:02.731Z,4.03
2024-01-21T07:47:05.099Z,9.53
2024-01-21T07:50:08.544Z,12.50
2024-01-21T07:53:10.775Z,8.05
2024-01-21T07:56:13.821Z,7.45
2024-01-21T07:59:16.120Z,13.00
2024-01-21T08:02:18.406Z,14.17
2024-01-21T08:05:20.720Z,8.30
2024-01-21T08:08:22.950Z,7.85
2024-01-21T08:11:25.233Z,14.55
2024-01-21T08:14:27.865Z,13.17
2024-01-21T08:17:30.100Z,5.93
2024-01-21T08:20:32.415Z,10.35
2024-01-21T08:23:36.561Z,9.20
2024-01-21T08:26:39.187Z,10.57
2024-01-21T08:29:42.112Z,11.83
2024-01-21T08:32:44.541Z,12.83
2024-01-21T08:35:46.948Z,9.30
2024-01-21T08:38:49.142Z,14.77
2024-01-21T08:41:51.825Z,13.40
2024-01-21T08:44:54.188Z,7.27
2024-01-21T08:47:56.474Z,6.00
2024-01-21T08:50:59.655Z,8.68
2024-01-21T08:54:02.207Z,4.60
2024-01-21T08:57:04.594Z,4.35
2024-01-21T09:00:12.062Z,5.77
2024-01-21T09:03:16.117Z,4.57
2024-01-21T09:06:19.546Z,5.22
2024-01-21T09:09:21.922Z,6.18
2024-01-21T09:12:24.214Z,6.15
2024-01-21T09:15:26.552Z,6.27
2024-01-21T09:18:28.972Z,7.80
2024-01-21T09:21:33.939Z,5.28
2024-01-21T09:24:36.582Z,2.70
2024-01-21T09:27:38.933Z,13.73
2024-01-21T09:30:42.502Z,10.80
2024-01-21T09:33:44.991Z,6.53
2024-01-21T09:36:47.452Z,4.47
2024-01-21T09:39:49.733Z,12.50
2024-01-21T09:42:52.195Z,7.75
2024-01-21T09:45:54.890Z,10.70
2024-01-21T09:48:59.057Z,15.20
2024-01-21T09:52:02.466Z,7.85
2024-01-21T09:55:06.307Z,3.65
2024-01-21T09:58:12.049Z,12.05
2024-01-21T10:01:15.826Z,5.13
2024-01-21T10:04:19.087Z,8.50
2024-01-21T10:07:21.524Z,7.05
2024-01-21T10:10:24.995Z,10.23
2024-01-21T10:13:27.485Z,9.60
2024-01-21T10:16:29.790Z,11.73
2024-01-21T10:19:33.444Z,7.47
2024-01-21T10:22:36.135Z,9.48
2024-01-21T10:25:41.437Z,8.88
2024-01-21T10:28:43.727Z,6.65
2024-01-21T10:31:45.986Z,6.40
2024-01-21T10:34:52.792Z,12.13
2024-01-21T10:37:55.933Z,7.90
2024-01-21T10:40:58.282Z,6.53
2024-01-21T10:44:03.402Z,5.38
2024-01-21T10:47:06.015Z,4.57
2024-01-21T10:50:09.456Z,6.77
2024-01-21T10:53:13.117Z,10.13
2024-01-21T10:56:16.230Z,4.50
2024-01-21T10:59:18.598Z,8.93
2024-01-21T11:02:20.856Z,7.97
2024-01-21T11:05:24.493Z,6.30
2024-01-21T11:08:28.423Z,7.30
2024-01-21T11:11:31.090Z,5.10
2024-01-21T11:14:35.106Z,12.38
2024-01-21T11:17:37.544Z,5.97
2024-01-21T11:20:40.055Z,9.73
2024-01-21T11:23:43.904Z,4.25
2024-01-21T11:26:49.203Z,13.05
2024-01-21T11:29:52.473Z,4.40
2024-01-21T11:32:58.947Z,4.87
2024-01-21T11:36:01.823Z,7.23
2024-01-21T11:39:04.167Z,8.27
2024-01-21T11:42:06.633Z,10.07
2024-01-21T11:45:09.377Z,8.05
2024-01-21T11:48:11.796Z,6.83
2024-01-21T11:51:14.063Z,9.93
2024-01-21T11:54:17.288Z,8.18
2024-01-21T11:57:20.995Z,5.90
2024-01-21T12:00:23.332Z,6.35
2024-01-21T12:03:25.604Z,6.00
2024-01-21T12:06:27.974Z,6.70
2024-01-21T12:09:30.452Z,9.73
2024-01-21T12:12:32.783Z,7.60
2024-01-21T12:15:37.085Z,11.38
2024-01-21T12:18:43.354Z,9.63
2024-01-21T12:21:45.928Z,6.37
2024-01-21T12:24:48.266Z,3.33
2024-01-21T12:27:55.718Z,10.43
2024-01-21T12:30:58.383Z,5.90
2024-01-21T12:34:01.502Z,6.93
2024-01-21T12:37:04.056Z,9.17
2024-01-21T12:40:06.768Z,6.43
2024-01-21T12:43:10.110Z,8.43
2024-01-21T12:46:13.265Z,5.10
2024-01-21T12:49:15.657Z,8.33
2024-01-21T12:52:17.936Z,8.07
2024-01-21T12:55:20.243Z,7.68
2024-01-21T12:58:22.741Z,6.72
2024-01-21T13:01:25.081Z,9.48
2024-01-21T13:04:27.520Z,8.23
2024-01-21T13:07:30.626Z,10.40
2024-01-21T13:10:33.075Z,8.43
2024-01-21T13:13:35.403Z,13.27
2024-01-21T13:16:37.734Z,12.15
2024-01-21T13:19:40.162Z,5.00
2024-01-21T13:22:42.566Z,10.97
2024-01-21T13:25:45.027Z,7.05
2024-01-21T13:29:05.869Z,6.28
2024-01-21T13:32:08.491Z,9.40
2024-01-21T13:35:10.813Z,11.13
2024-01-21T13:38:18.142Z,10.20
2024-01-21T13:41:20.418Z,8.95
2024-01-21T13:44:22.730Z,6.43
2024-01-21T13:47:25.402Z,8.13
2024-01-21T13:50:28.089Z,10.70
2024-01-21T13:53:30.340Z,9.07
2024-01-21T13:56:32.538Z,6.47
2024-01-21T13:59:34.773Z,7.13
2024-01-21T14:02:37.417Z,6.32
2024-01-21T14:05:40.205Z,6.30
2024-01-21T14:08:42.650Z,7.33
2024-01-21T14:11:46.828Z,11.93
2024-01-21T14:14:49.110Z,6.50
2024-01-21T14:17:54.200Z,8.45
2024-01-21T14:20:56.473Z,6.63
2024-01-21T14:23:58.721Z,9.07
2024-01-21T14:27:00.939Z,8.82
2024-01-21T14:30:04.168Z,11.40
2024-01-21T14:33:06.692Z,14.75
2024-01-21T14:36:11.934Z,14.30
2024-01-21T14:39:14.342Z,12.67
2024-01-21T14:42:16.726Z,8.35
2024-01-21T14:45:19.058Z,9.88
2024-01-21T14:48:21.652Z,13.85
2024-01-21T14:51:23.980Z,6.07
2024-01-21T14:54:26.257Z,9.40
2024-01-21T14:57:28.588Z,8.57
2024-01-21T15:00:49.736Z,11.80
2024-01-21T15:04:10.804Z,4.45
2024-01-21T15:07:13.155Z,11.27
2024-01-21T15:10:15.502Z,7.07
2024-01-21T15:13:22.219Z,10.15
2024-01-21T15:16:25.273Z,8.80
2024-01-21T15:19:27.575Z,7.10
2024-01-21T15:22:29.866Z,6.73
2024-01-21T15:25:32.127Z,15.27
2024-01-21T15:28:34.514Z,11.68
2024-01-21T15:31:36.892Z,9.45
2024-01-21T15:34:39.374Z,13.80
2024-01-21T15:37:42.242Z,13.20
2024-01-21T15:40:44.494Z,12.83
2024-01-21T15:43:46.896Z,15.80
2024-01-21T15:46:49.636Z,12.55
2024-01-21T15:49:52.472Z,14.43
2024-01-21T15:52:54.707Z,14.77
2024-01-21T15:55:57.075Z,20.10
2024-01-21T15:59:01.539Z,13.65
2024-01-21T16:02:03.905Z,14.73
2024-01-21T16:05:06.260Z,12.85
2024-01-21T16:08:27.545Z,11.57
2024-01-21T16:11:49.029Z,13.57
2024-01-21T16:15:10.331Z,12.50
2024-01-21T16:18:32.000Z,18.40
2024-01-21T16:21:34.589Z,14.50
2024-01-21T16:24:37.447Z,22.07
2024-01-21T16:27:58.511Z,17.97
2024-01-21T16:31:19.437Z,15.80
2024-01-21T16:34:21.784Z,17.30
2024-01-21T16:37:42.497Z,11.18
2024-01-21T16:40:44.825Z,14.97
2024-01-21T16:43:48.697Z,9.70
2024-01-21T16:46:52.888Z,13.50
2024-01-21T16:49:55.228Z,15.75
2024-01-21T16:53:02.428Z,9.60
2024-01-21T16:56:05.439Z,20.13
2024-01-21T16:59:08.621Z,19.97
2024-01-21T17:02:20.942Z,12.80
2024-01-21T17:05:26.398Z,11.27
2024-01-21T17:08:28.792Z,18.55
2024-01-21T17:11:31.400Z,14.37
2024-01-21T17:14:33.727Z,13.43
2024-01-21T17:17:36.156Z,12.82
2024-01-21T17:20:38.627Z,10.13
2024-01-21T17:23:42.470Z,13.98
2024-01-21T17:26:44.855Z,17.90
2024-01-21T17:29:47.238Z,16.00
2024-01-21T17:32:49.708Z,11.00
2024-01-21T17:35:54.378Z,10.88
2024-01-21T17:39:04.061Z,13.07
2024-01-21T17:42:09.500Z,9.23
2024-01-21T17:45:12.886Z,10.57
2024-01-21T17:48:16.567Z,14.63
2024-01-21T17:51:18.877Z,11.68
2024-01-21T17:54:21.192Z,18.25
2024-01-21T17:57:23.543Z,26.10
2024-01-21T18:00:28.267Z,13.80
2024-01-21T18:03:30.596Z,16.40
2024-01-21T18:06:32.984Z,17.52
2024-01-21T18:09:36.178Z,12.02
2024-01-21T18:12:38.511Z,15.00
2024-01-21T18:15:42.664Z,11.77
2024-01-21T18:18:45.181Z,15.40
2024-01-21T18:21:47.630Z,27.75
2024-01-21T18:24:54.012Z,16.15
2024-01-21T18:27:57.880Z,17.50
2024-01-21T18:31:00.136Z,16.73
2024-01-21T18:34:02.490Z,13.55
2024-01-21T18:37:04.970Z,22.35
2024-01-21T18:40:07.711Z,14.98
2024-01-21T18:43:10.123Z,17.93
2024-01-21T18:46:12.426Z,19.57
2024-01-21T18:49:14.908Z,14.13
2024-01-21T18:52:17.329Z,13.98
2024-01-21T18:55:19.603Z,18.13
2024-01-21T18:58:27.607Z,10.77
2024-01-21T19:01:30.646Z,14.77
2024-01-21T19:04:36.266Z,26.92
2024-01-21T19:07:45.421Z,18.95
2024-01-21T19:10:49.277Z,22.08
2024-01-21T19:13:53.184Z,13.30
2024-01-21T19:16:55.540Z,16.47
2024-01-21T19:19:58.898Z,20.75
2024-01-21T19:23:03.399Z,15.38
2024-01-21T19:26:07.064Z,19.70
2024-01-21T19:29:09.502Z,18.23
2024-01-21T19:32:11.723Z,16.87
2024-01-21T19:35:14.002Z,11.30
2024-01-21T19:38:16.263Z,11.00
2024-01-21T19:41:18.523Z,14.48
2024-01-21T19:44:20.856Z,12.27
2024-01-21T19:47:23.182Z,38.50
2024-01-21T19:50:25.452Z,24.02
2024-01-21T19:53:28.701Z,16.02
2024-01-21T19:56:31.999Z,14.43
2024-01-21T19:59:36.065Z,22.50
2024-01-21T20:02:38.407Z,13.80
2024-01-21T20:05:43.904Z,21.13
2024-01-21T20:08:46.228Z,10.02
2024-01-21T20:11:51.540Z,19.90
2024-01-21T20:14:53.840Z,14.87
2024-01-21T20:17:56.493Z,25.23
2024-01-21T20:20:59.226Z,18.50
2024-01-21T20:24:01.718Z,15.48
2024-01-21T20:27:04.177Z,20.23
2024-01-21T20:30:07.103Z,17.30
2024-01-21T20:33:09.607Z,14.17
2024-01-21T20:36:12.088Z,21.30
2024-01-21T20:39:14.352Z,16.95
2024-01-21T20:42:16.590Z,17.42
2024-01-21T20:45:18.916Z,11.07
2024-01-21T20:48:21.251Z,20.23
2024-01-21T20:51:23.863Z,10.32
2024-01-21T20:54:26.069Z,19.95
2024-01-21T20:57:28.291Z,12.25
2024-01-21T21:00:30.970Z,6.20
2024-01-21T21:03:33.620Z,16.03
2024-01-21T21:06:36.187Z,24.58
2024-01-21T21:09:38.473Z,20.75
2024-01-21T21:12:43.124Z,10.48
2024-01-21T21:15:45.533Z,22.90
2024-01-21T21:18:48.115Z,16.57
2024-01-21T21:21:50.677Z,12.48
2024-01-21T21:24:58.302Z,17.60
2024-01-21T21:28:01.073Z,14.65
2024-01-21T21:31:04.779Z,13.27
2024-01-21T21:34:07.158Z,17.03
2024-01-21T21:37:09.644Z,12.93
2024-01-21T21:40:12.111Z,11.73
2024-01-21T21:43:14.479Z,9.20
2024-01-21T21:46:16.791Z,19.17
2024-01-21T21:49:19.223Z,10.20
2024-01-21T21:52:21.757Z,14.73
2024-01-21T21:55:25.221Z,11.23
2024-01-21T21:58:27.470Z,15.43
2024-01-21T22:01:30.432Z,20.47
2024-01-21T22:04:32.848Z,13.60
2024-01-21T22:07:35.246Z,12.63
2024-01-21T22:10:38.135Z,13.65
2024-01-21T22:13:40.589Z,17.15
2024-01-21T22:16:42.898Z,17.03
2024-01-21T22:19:45.361Z,10.57
2024-01-21T22:22:48.745Z,17.25
2024-01-21T22:25:50.964Z,10.15
2024-01-21T22:28:53.153Z,20.10
2024-01-21T22:31:55.423Z,15.67
2024-01-21T22:34:57.689Z,12.80
2024-01-21T22:37:59.950Z,14.15
2024-01-21T22:41:02.292Z,17.02
2024-01-21T22:44:04.619Z,10.82
2024-01-21T22:47:07.090Z,9.40
2024-01-21T22:50:10.169Z,13.77
2024-01-21T22:53:12.566Z,16.33
2024-01-21T22:56:14.854Z,16.77
2024-01-21T22:59:17.098Z,18.33
2024-01-21T23:02:19.374Z,14.17
2024-01-21T23:05:23.910Z,17.00
2024-01-21T23:08:27.134Z,16.73
2024-01-21T23:11:29.427Z,22.23
2024-01-21T23:14:31.724Z,22.23
2024-01-21T23:17:34.077Z,14.20
2024-01-21T23:20:36.367Z,26.00
2024-01-21T23:23:39.117Z,8.95
2024-01-21T23:26:41.792Z,9.25
2024-01-21T23:29:44.104Z,16.85
2024-01-21T23:32:46.759Z,15.47
2024-01-21T23:35:50.113Z,14.83
2024-01-21T23:38:52.405Z,12.55
2024-01-21T23:41:54.688Z,13.02
2024-01-21T23:44:57.076Z,17.83
2024-01-21T23:47:59.386Z,13.07
2024-01-21T23:51:01.760Z,16.93
2024-01-21T23:54:04.090Z,14.60
2024-01-21T23:57:06.382Z,8.77
